Carlos, Minnesota
Current Conditions -  °F | °C
As of 5:28 AM on Wednesday 26 Nov 2014 (Local Time) from KAXN Reporting Station
Light Snow Light Snow  
Wind Chill:   Ceiling: 3900
Heat Index: 20°   Visibility: 3mi
Dew Point: 15°   Wind: 12mph
Humidity: 81%   Direction: 20°NNE
Pressure: 30.08"   Gusts: NA
Location:  45.97°N, 95.29°W
Report Text: KAXN 261128Z AUTO 02010KT 3SM -SN OVC039 M07/M09 A3008 RMK AO2 P0000 T10671094
Loading
Personal Weather Stations






























Interactive Weather Map New forecast layout! Learn more

10-Day Weather Forecast

Advertisements
Track Severe Weather on mobile